Time;durP1;ratioP1;P1;durP2;ratioP2;P2;SDS_P1;SDS_P2;PMS_P1;PMS_P2;Temp;Humidity;BMP_temperature;BMP_pressure;BME280_temperature;BME280_humidity;BME280_pressure;Samples;Min_cycle;Max_cycle;Signal;HPM_P1;HPM_P2
2022/03/30 00:00:29;;;;;;;;;;;9.10;99.90;;;;;;5018215;28;20015;-69
2022/03/30 00:02:56;;;;;;;;;;;9.20;99.90;;;;;;5050531;28;19928;-68
2022/03/30 00:05:23;;;;;;;;;;;9.10;99.90;;;;;;5050271;28;19924;-69
2022/03/30 00:07:51;;;;;;;;;;;9.10;99.90;;;;;;5047243;28;19931;-69
2022/03/30 00:10:19;;;;;;;;;;;9.10;99.90;;;;;;5043304;28;19990;-70
2022/03/30 00:12:46;;;;;;;;;;;9.10;99.90;;;;;;5032668;28;20000;-70
2022/03/30 00:15:13;;;;;;;;;;;9.10;99.90;;;;;;5022123;28;19928;-70
2022/03/30 00:17:39;;;;;;;;;;;9.10;99.90;;;;;;5037268;28;19925;-70
2022/03/30 00:20:06;;;;;;;;;;;9.10;99.90;;;;;;5036172;28;19939;-70
2022/03/30 00:22:33;;;;;;;;;;;9.10;99.90;;;;;;5010371;28;20071;-70
2022/03/30 00:25:00;;;;;;;;;;;9.00;99.90;;;;;;5038221;28;19921;-71
2022/03/30 00:27:28;;;;;;;;;;;9.00;99.90;;;;;;5047619;28;20288;-70
2022/03/30 00:29:55;;;;;;;;;;;9.00;99.90;;;;;;5060984;28;19928;-70
2022/03/30 00:32:21;;;;;;;;;;;9.00;99.90;;;;;;5035828;28;20290;-70
2022/03/30 00:34:48;;;;;;;;;;;9.00;99.90;;;;;;5046788;28;20270;-70
2022/03/30 00:37:15;;;;;;;;;;;8.90;99.90;;;;;;5044673;28;20159;-70
2022/03/30 00:39:42;;;;;;;;;;;8.90;99.90;;;;;;5023413;28;20019;-70
2022/03/30 00:42:15;;;;;;;;;;;8.90;99.90;;;;;;5050889;28;20390;-70
2022/03/30 00:44:43;;;;;;;;;;;8.90;99.90;;;;;;5049615;28;19925;-70
2022/03/30 00:47:14;;;;;;;;;;;8.80;99.90;;;;;;5048184;28;20041;-70
2022/03/30 00:49:41;;;;;;;;;;;8.80;99.90;;;;;;5047391;28;19921;-70
2022/03/30 00:52:08;;;;;;;;;;;8.80;99.90;;;;;;5049574;28;19932;-70
2022/03/30 00:54:35;;;;;;;;;;;8.80;99.90;;;;;;5063131;28;19928;-70
2022/03/30 00:57:02;;;;;;;;;;;8.80;99.90;;;;;;5047207;28;19931;-70
2022/03/30 00:59:29;;;;;;;;;;;8.80;99.90;;;;;;5048174;28;19929;-71
2022/03/30 01:01:57;;;;;;;;;;;8.70;99.90;;;;;;5043291;28;19929;-70
2022/03/30 01:04:23;;;;;;;;;;;8.70;99.90;;;;;;5049675;28;19944;-71
2022/03/30 01:06:50;;;;;;;;;;;8.60;99.90;;;;;;5047665;28;20380;-71
2022/03/30 01:09:17;;;;;;;;;;;8.60;99.90;;;;;;5027239;28;19928;-70
2022/03/30 01:11:44;;;;;;;;;;;8.60;99.90;;;;;;5044325;28;19925;-70
2022/03/30 01:14:11;;;;;;;;;;;8.60;99.90;;;;;;5039161;28;20386;-71
2022/03/30 01:16:39;;;;;;;;;;;8.50;99.90;;;;;;5047973;28;19932;-71
2022/03/30 01:19:08;;;;;;;;;;;8.50;99.90;;;;;;5042212;28;20063;-70
2022/03/30 01:21:36;;;;;;;;;;;8.40;99.90;;;;;;5039420;28;19925;-69
2022/03/30 01:24:03;;;;;;;;;;;8.30;99.90;;;;;;5045566;28;19936;-69
2022/03/30 01:26:30;;;;;;;;;;;8.30;99.90;;;;;;5039779;28;19932;-69
2022/03/30 01:28:57;;;;;;;;;;;8.30;99.90;;;;;;5040790;28;20017;-69
2022/03/30 01:34:08;;;;;;;;;;;8.20;99.90;;;;;;5042954;28;19924;-69
2022/03/30 01:36:36;;;;;;;;;;;8.20;99.90;;;;;;5045336;28;19996;-70
2022/03/30 01:39:03;;;;;;;;;;;8.20;99.90;;;;;;5044168;28;20416;-69
2022/03/30 01:41:30;;;;;;;;;;;8.10;99.90;;;;;;5039977;28;19951;-70
2022/03/30 01:43:57;;;;;;;;;;;8.10;99.90;;;;;;5046901;28;20050;-70
2022/03/30 01:46:23;;;;;;;;;;;8.10;99.90;;;;;;5024133;28;20028;-70
2022/03/30 01:48:50;;;;;;;;;;;8.10;99.90;;;;;;5040828;28;19924;-71
2022/03/30 01:51:17;;;;;;;;;;;8.00;99.90;;;;;;5037050;28;19925;-70
2022/03/30 01:53:45;;;;;;;;;;;8.00;99.90;;;;;;5037711;28;19928;-71
2022/03/30 01:56:12;;;;;;;;;;;8.00;99.90;;;;;;5010708;28;19948;-71
2022/03/30 01:58:38;;;;;;;;;;;8.00;99.90;;;;;;5039095;28;19967;-71
2022/03/30 02:01:05;;;;;;;;;;;8.00;99.90;;;;;;5024932;28;19931;-71
2022/03/30 02:03:32;;;;;;;;;;;8.00;99.90;;;;;;5047756;28;19935;-70
2022/03/30 02:05:59;;;;;;;;;;;8.00;99.90;;;;;;5040746;28;19932;-70
2022/03/30 02:08:26;;;;;;;;;;;8.00;99.90;;;;;;5040409;28;20070;-70
2022/03/30 02:10:54;;;;;;;;;;;8.00;99.90;;;;;;5034571;28;20061;-70
2022/03/30 02:13:21;;;;;;;;;;;8.00;99.90;;;;;;5033970;28;20008;-70
2022/03/30 02:15:48;;;;;;;;;;;8.00;99.90;;;;;;5045801;28;19968;-70
2022/03/30 02:18:16;;;;;;;;;;;7.90;99.90;;;;;;5032396;28;20004;-70
2022/03/30 02:20:42;;;;;;;;;;;7.90;99.90;;;;;;5041605;28;19944;-69
2022/03/30 02:23:09;;;;;;;;;;;7.90;99.90;;;;;;5044433;28;20378;-69
2022/03/30 02:25:36;;;;;;;;;;;7.90;99.90;;;;;;5053922;28;19928;-69
2022/03/30 02:28:04;;;;;;;;;;;7.90;99.90;;;;;;5039291;28;19951;-70
2022/03/30 02:30:31;;;;;;;;;;;7.80;99.90;;;;;;5043955;28;20405;-69
2022/03/30 02:32:58;;;;;;;;;;;7.70;99.90;;;;;;5039601;28;19933;-70
2022/03/30 02:35:25;;;;;;;;;;;7.70;99.90;;;;;;5039548;28;20167;-70
2022/03/30 02:37:54;;;;;;;;;;;7.70;99.90;;;;;;5020332;28;20274;-70
2022/03/30 02:40:21;;;;;;;;;;;7.60;99.90;;;;;;5037522;28;19932;-71
2022/03/30 02:42:48;;;;;;;;;;;7.60;99.90;;;;;;5037975;28;20413;-70
2022/03/30 02:45:16;;;;;;;;;;;7.60;99.90;;;;;;5021008;28;19925;-70
2022/03/30 02:50:27;;;;;;;;;;;7.50;99.90;;;;;;5039726;28;19917;-70
2022/03/30 02:52:53;;;;;;;;;;;7.40;99.90;;;;;;5037492;28;20321;-70
2022/03/30 02:55:20;;;;;;;;;;;7.40;99.90;;;;;;5042949;28;19951;-70
2022/03/30 02:57:47;;;;;;;;;;;7.30;99.90;;;;;;5014943;28;20314;-70
2022/03/30 03:00:15;;;;;;;;;;;7.30;99.90;;;;;;5036445;28;20468;-70
2022/03/30 03:02:43;;;;;;;;;;;7.20;99.90;;;;;;5040142;28;20003;-70
2022/03/30 03:05:10;;;;;;;;;;;7.10;99.90;;;;;;5037149;28;20425;-70
2022/03/30 03:07:37;;;;;;;;;;;7.00;99.90;;;;;;5020392;28;19935;-70
2022/03/30 03:10:04;;;;;;;;;;;6.90;99.90;;;;;;5027018;28;20269;-70
2022/03/30 03:12:31;;;;;;;;;;;6.80;99.90;;;;;;5019119;28;20347;-69
2022/03/30 03:14:58;;;;;;;;;;;6.80;99.90;;;;;;5014003;28;19995;-69
2022/03/30 03:17:24;;;;;;;;;;;5.60;99.90;;;;;;5018859;28;20447;-69
2022/03/30 03:19:52;;;;;;;;;;;6.70;99.90;;;;;;5043888;28;19925;-69
2022/03/30 03:22:21;;;;;;;;;;;6.00;99.90;;;;;;5012800;28;19998;-69
2022/03/30 03:24:48;;;;;;;;;;;6.50;99.90;;;;;;5038166;28;19936;-69
2022/03/30 03:27:14;;;;;;;;;;;6.50;99.90;;;;;;5035921;28;19941;-70
2022/03/30 03:29:41;;;;;;;;;;;6.40;99.90;;;;;;5043548;28;19925;-70
2022/03/30 03:32:08;;;;;;;;;;;6.40;99.90;;;;;;5039604;28;19920;-70
2022/03/30 03:34:35;;;;;;;;;;;6.40;99.90;;;;;;5035007;28;19932;-70
2022/03/30 03:37:03;;;;;;;;;;;6.40;99.90;;;;;;5039412;28;19931;-69
2022/03/30 03:39:30;;;;;;;;;;;6.40;99.90;;;;;;5037090;28;19931;-70
2022/03/30 03:41:57;;;;;;;;;;;6.30;99.90;;;;;;5039302;28;20003;-70
2022/03/30 03:44:23;;;;;;;;;;;6.30;99.90;;;;;;5039846;28;20298;-69
2022/03/30 03:46:50;;;;;;;;;;;6.20;99.90;;;;;;5032773;28;19925;-70
2022/03/30 03:49:17;;;;;;;;;;;6.30;99.90;;;;;;5019593;28;19940;-70
2022/03/30 03:51:43;;;;;;;;;;;6.20;99.90;;;;;;5043512;28;19925;-70
2022/03/30 03:54:11;;;;;;;;;;;6.20;99.90;;;;;;5037801;28;19929;-70
2022/03/30 03:56:38;;;;;;;;;;;6.20;99.90;;;;;;5018569;28;20456;-70
2022/03/30 03:59:05;;;;;;;;;;;6.20;99.90;;;;;;5037583;28;19921;-70
2022/03/30 04:01:32;;;;;;;;;;;6.20;99.90;;;;;;5042187;28;19925;-70
2022/03/30 04:03:59;;;;;;;;;;;6.10;99.90;;;;;;5047541;28;20017;-70
2022/03/30 04:06:26;;;;;;;;;;;6.10;99.90;;;;;;5033239;28;19925;-69
2022/03/30 04:08:54;;;;;;;;;;;6.10;99.90;;;;;;5043385;28;19920;-70
2022/03/30 04:11:22;;;;;;;;;;;6.10;99.90;;;;;;5044996;28;20354;-69
2022/03/30 04:13:49;;;;;;;;;;;6.00;99.90;;;;;;5017260;28;19920;-70
2022/03/30 04:16:16;;;;;;;;;;;6.00;99.90;;;;;;5038378;28;19932;-70
2022/03/30 04:18:43;;;;;;;;;;;5.90;99.90;;;;;;5047102;28;20051;-70
2022/03/30 04:21:10;;;;;;;;;;;4.60;99.90;;;;;;5048205;28;19929;-70
2022/03/30 04:23:36;;;;;;;;;;;5.90;99.90;;;;;;5048200;28;19928;-70
2022/03/30 04:26:03;;;;;;;;;;;5.80;99.90;;;;;;5039449;28;19928;-69
2022/03/30 04:28:31;;;;;;;;;;;5.80;99.90;;;;;;5057233;28;20329;-69
2022/03/30 04:30:58;;;;;;;;;;;5.70;99.90;;;;;;5039988;28;19925;-70
2022/03/30 04:33:24;;;;;;;;;;;5.60;99.90;;;;;;5024583;28;19925;-69
2022/03/30 04:35:51;;;;;;;;;;;5.60;99.90;;;;;;5042215;28;20421;-69
2022/03/30 04:38:18;;;;;;;;;;;5.50;99.90;;;;;;5040416;28;19925;-69
2022/03/30 04:40:45;;;;;;;;;;;5.50;99.90;;;;;;5042996;28;19924;-69
2022/03/30 04:43:11;;;;;;;;;;;5.40;99.90;;;;;;5041825;28;20408;-70
2022/03/30 04:45:39;;;;;;;;;;;5.30;99.90;;;;;;5042577;28;19924;-70
2022/03/30 04:48:06;;;;;;;;;;;5.30;99.90;;;;;;5031914;28;19924;-69
2022/03/30 04:50:33;;;;;;;;;;;5.20;99.90;;;;;;5047637;28;19947;-69
2022/03/30 04:53:00;;;;;;;;;;;5.20;99.90;;;;;;5040409;28;19939;-69
2022/03/30 04:55:27;;;;;;;;;;;5.10;99.90;;;;;;5043168;28;20024;-69
2022/03/30 04:57:54;;;;;;;;;;;5.10;99.90;;;;;;5021999;28;19924;-70
2022/03/30 05:00:21;;;;;;;;;;;5.00;99.90;;;;;;5024340;28;19932;-69
2022/03/30 05:02:49;;;;;;;;;;;5.00;99.90;;;;;;5039278;28;19933;-69
2022/03/30 05:05:15;;;;;;;;;;;5.00;99.90;;;;;;5023650;28;20436;-69
2022/03/30 05:07:42;;;;;;;;;;;4.90;99.90;;;;;;5040668;28;19932;-71
2022/03/30 05:10:10;;;;;;;;;;;4.90;99.90;;;;;;5041373;28;20385;-69
2022/03/30 05:12:37;;;;;;;;;;;4.80;99.90;;;;;;5042286;28;19925;-69
2022/03/30 05:15:04;;;;;;;;;;;4.80;99.90;;;;;;5037726;28;19925;-69
2022/03/30 05:17:31;;;;;;;;;;;4.80;99.90;;;;;;5041252;28;19936;-69
2022/03/30 05:19:59;;;;;;;;;;;4.80;99.90;;;;;;5042297;28;20352;-69
2022/03/30 05:22:26;;;;;;;;;;;4.80;99.90;;;;;;5032945;28;20342;-68
2022/03/30 05:24:52;;;;;;;;;;;4.80;99.90;;;;;;5047662;28;20259;-68
2022/03/30 05:30:02;;;;;;;;;;;4.90;99.90;;;;;;5124020;22;19925;-69
2022/03/30 05:32:29;;;;;;;;;;;4.90;99.90;;;;;;5010688;28;19926;-69
2022/03/30 05:34:56;;;;;;;;;;;4.90;99.90;;;;;;5014833;28;20307;-69
2022/03/30 05:37:24;;;;;;;;;;;4.90;99.90;;;;;;5019615;28;19936;-70
2022/03/30 05:39:52;;;;;;;;;;;4.90;99.90;;;;;;5012796;28;19940;-68
2022/03/30 05:42:22;;;;;;;;;;;5.00;99.90;;;;;;5008972;28;20059;-69
2022/03/30 05:44:49;;;;;;;;;;;5.00;99.90;;;;;;5006728;28;20361;-69
2022/03/30 05:47:17;;;;;;;;;;;5.10;99.90;;;;;;4996193;28;20299;-69
2022/03/30 05:49:44;;;;;;;;;;;5.20;99.90;;;;;;5004823;28;19932;-69
2022/03/30 05:52:10;;;;;;;;;;;5.30;99.90;;;;;;5005314;28;19976;-69
2022/03/30 05:54:38;;;;;;;;;;;5.40;99.90;;;;;;5004202;28;20390;-68
2022/03/30 05:57:05;;;;;;;;;;;5.50;99.90;;;;;;5007817;28;19926;-70
2022/03/30 05:59:34;;;;;;;;;;;5.60;99.90;;;;;;5012009;28;19929;-70
2022/03/30 06:02:01;;;;;;;;;;;5.60;99.90;;;;;;4999369;28;19933;-69
2022/03/30 06:04:28;;;;;;;;;;;5.60;99.90;;;;;;5011264;28;19925;-69
2022/03/30 06:06:55;;;;;;;;;;;5.50;99.90;;;;;;5007390;28;19929;-69
2022/03/30 06:09:22;;;;;;;;;;;5.50;99.90;;;;;;5006527;28;19929;-69
2022/03/30 06:11:50;;;;;;;;;;;5.60;99.90;;;;;;5012646;28;20541;-69
2022/03/30 06:14:17;;;;;;;;;;;5.70;99.90;;;;;;5000822;28;19921;-69
2022/03/30 06:16:44;;;;;;;;;;;6.10;99.90;;;;;;4998296;28;20039;-69
2022/03/30 06:19:12;;;;;;;;;;;6.10;99.90;;;;;;5006944;28;19932;-70
2022/03/30 06:21:39;;;;;;;;;;;6.70;99.90;;;;;;5007812;28;20024;-70
2022/03/30 06:24:06;;;;;;;;;;;7.30;99.90;;;;;;5004089;28;20012;-69
2022/03/30 06:26:32;;;;;;;;;;;7.90;99.90;;;;;;5013911;28;20029;-70
2022/03/30 06:29:01;;;;;;;;;;;8.60;99.90;;;;;;5009713;28;19925;-69
2022/03/30 06:31:27;;;;;;;;;;;9.10;99.90;;;;;;5013729;28;19925;-70
2022/03/30 06:33:54;;;;;;;;;;;9.60;99.90;;;;;;5009666;28;20574;-70
2022/03/30 06:36:21;;;;;;;;;;;10.10;99.90;;;;;;5000733;28;20057;-70
2022/03/30 06:38:47;;;;;;;;;;;10.50;99.90;;;;;;5002621;28;19928;-70
2022/03/30 06:41:16;;;;;;;;;;;11.00;99.90;;;;;;5002346;28;19921;-69
2022/03/30 06:43:46;;;;;;;;;;;11.50;99.90;;;;;;4994425;28;20276;-70
2022/03/30 06:46:14;;;;;;;;;;;11.80;99.90;;;;;;5007265;28;19925;-70
2022/03/30 06:48:41;;;;;;;;;;;12.10;99.90;;;;;;4994314;28;20011;-70
2022/03/30 06:51:08;;;;;;;;;;;12.30;99.90;;;;;;5001061;28;20256;-70
2022/03/30 06:53:35;;;;;;;;;;;12.50;99.90;;;;;;5008973;28;19925;-70
2022/03/30 06:56:02;;;;;;;;;;;12.90;99.90;;;;;;5017060;28;19924;-71
2022/03/30 06:58:29;;;;;;;;;;;15.30;99.90;;;;;;5011044;28;20400;-70
2022/03/30 07:00:58;;;;;;;;;;;14.30;99.90;;;;;;5011442;28;19933;-69
2022/03/30 07:03:28;;;;;;;;;;;14.70;99.90;;;;;;5015722;28;19925;-69
2022/03/30 07:05:55;;;;;;;;;;;14.80;99.90;;;;;;5002486;28;20286;-70
2022/03/30 07:11:06;;;;;;;;;;;14.70;99.90;;;;;;5003490;28;20127;-69
2022/03/30 07:13:32;;;;;;;;;;;15.00;99.90;;;;;;5004528;28;19925;-70
2022/03/30 07:16:00;;;;;;;;;;;15.00;99.90;;;;;;4999302;28;19929;-69
2022/03/30 07:18:28;;;;;;;;;;;14.70;99.90;;;;;;5004224;28;19947;-69
2022/03/30 07:20:55;;;;;;;;;;;14.80;99.90;;;;;;4999978;28;20449;-69
2022/03/30 07:23:23;;;;;;;;;;;15.20;99.90;;;;;;5006598;28;19925;-69
2022/03/30 07:25:50;;;;;;;;;;;15.20;99.90;;;;;;5008607;28;19982;-69
2022/03/30 07:28:17;;;;;;;;;;;15.50;99.90;;;;;;5018327;28;19928;-69
2022/03/30 07:30:44;;;;;;;;;;;16.10;99.90;;;;;;5012245;28;19925;-71
2022/03/30 07:33:11;;;;;;;;;;;18.20;99.90;;;;;;5018527;28;19975;-71
2022/03/30 07:35:45;;;;;;;;;;;18.00;99.90;;;;;;5013619;28;19925;-70
2022/03/30 07:38:12;;;;;;;;;;;18.10;99.90;;;;;;5009593;28;19926;-71
2022/03/30 07:40:39;;;;;;;;;;;18.60;99.90;;;;;;5013456;28;19925;-70
2022/03/30 07:43:06;;;;;;;;;;;18.70;99.90;;;;;;4995157;28;19952;-70
2022/03/30 07:45:33;;;;;;;;;;;18.70;99.90;;;;;;4999332;28;19929;-69
2022/03/30 07:48:00;;;;;;;;;;;18.90;99.90;;;;;;5004889;28;19988;-70
2022/03/30 07:50:26;;;;;;;;;;;17.80;99.20;;;;;;5009677;28;19956;-70
2022/03/30 07:52:54;;;;;;;;;;;17.10;99.90;;;;;;5012406;28;19925;-69
2022/03/30 07:55:21;;;;;;;;;;;18.40;99.90;;;;;;5004777;28;19922;-69
2022/03/30 07:57:48;;;;;;;;;;;16.70;99.90;;;;;;4995050;28;20344;-69
2022/03/30 08:00:16;;;;;;;;;;;16.70;99.00;;;;;;4995838;28;19925;-67
2022/03/30 08:02:44;;;;;;;;;;;16.50;99.90;;;;;;5013659;28;20306;-68
2022/03/30 08:05:12;;;;;;;;;;;16.50;99.50;;;;;;5011860;28;20379;-68
2022/03/30 08:07:39;;;;;;;;;;;16.90;99.90;;;;;;5007114;28;19921;-68
2022/03/30 08:10:09;;;;;;;;;;;17.50;99.90;;;;;;4999197;28;20395;-69
2022/03/30 08:12:36;;;;;;;;;;;17.50;99.90;;;;;;5002256;28;20065;-68
2022/03/30 08:15:02;;;;;;;;;;;17.40;98.40;;;;;;4998071;28;19932;-69
2022/03/30 08:17:30;;;;;;;;;;;16.20;98.60;;;;;;5008801;28;19925;-69
2022/03/30 08:19:57;;;;;;;;;;;16.10;98.50;;;;;;5000098;28;20025;-69
2022/03/30 08:22:25;;;;;;;;;;;15.30;97.70;;;;;;5007498;28;19957;-69
2022/03/30 08:24:53;;;;;;;;;;;14.40;97.90;;;;;;5016398;28;19937;-69
2022/03/30 08:27:22;;;;;;;;;;;13.90;99.70;;;;;;5005275;28;19989;-69
2022/03/30 08:29:49;;;;;;;;;;;14.00;99.90;;;;;;5011479;28;19995;-70
2022/03/30 08:32:16;;;;;;;;;;;14.30;99.90;;;;;;5008468;28;19927;-70
2022/03/30 08:34:43;;;;;;;;;;;14.80;99.90;;;;;;5007131;28;20212;-68
2022/03/30 08:37:10;;;;;;;;;;;15.40;99.90;;;;;;5007729;28;20331;-68
2022/03/30 08:39:37;;;;;;;;;;;15.80;99.90;;;;;;5004775;28;20255;-70
2022/03/30 08:42:04;;;;;;;;;;;15.80;99.60;;;;;;4999283;28;20252;-68
2022/03/30 08:44:33;;;;;;;;;;;15.70;98.70;;;;;;5003536;28;19934;-69
2022/03/30 08:47:01;;;;;;;;;;;15.60;99.10;;;;;;5014002;28;19932;-69
2022/03/30 08:49:33;;;;;;;;;;;15.50;99.00;;;;;;5001175;28;19925;-69
2022/03/30 08:52:00;;;;;;;;;;;15.40;99.10;;;;;;5006762;28;19933;-68
2022/03/30 08:54:27;;;;;;;;;;;16.10;99.90;;;;;;5007606;28;20095;-69
2022/03/30 08:56:54;;;;;;;;;;;15.90;97.80;;;;;;5007381;28;20011;-69
2022/03/30 08:59:21;;;;;;;;;;;15.70;98.20;;;;;;5009307;28;19925;-69
2022/03/30 09:01:52;;;;;;;;;;;15.70;98.40;;;;;;5011745;28;19921;-68
2022/03/30 09:04:19;;;;;;;;;;;16.40;98.90;;;;;;4999705;28;20020;-69
2022/03/30 09:06:47;;;;;;;;;;;16.40;99.40;;;;;;5005211;28;20460;-69
2022/03/30 09:09:14;;;;;;;;;;;16.50;99.40;;;;;;5005057;28;19925;-69
2022/03/30 09:11:45;;;;;;;;;;;16.70;98.80;;;;;;5017100;28;19932;-70
2022/03/30 09:14:13;;;;;;;;;;;16.50;97.60;;;;;;5005697;28;20190;-69
2022/03/30 09:16:40;;;;;;;;;;;;;;;;;;5023003;28;19926;-68
2022/03/30 09:19:09;;;;;;;;;;;16.40;97.80;;;;;;5023433;28;19931;-69
2022/03/30 09:21:45;;;;;;;;;;;16.40;97.10;;;;;;5005997;28;20437;-70
2022/03/30 09:24:12;;;;;;;;;;;16.00;96.00;;;;;;5005734;28;19929;-68
2022/03/30 09:26:38;;;;;;;;;;;15.60;96.10;;;;;;5011534;28;19925;-69
2022/03/30 09:29:07;;;;;;;;;;;15.30;96.00;;;;;;4997366;28;19932;-68
2022/03/30 09:31:35;;;;;;;;;;;15.00;96.30;;;;;;5011415;28;19926;-69
2022/03/30 09:34:02;;;;;;;;;;;14.50;96.40;;;;;;5002658;28;19925;-68
2022/03/30 09:36:31;;;;;;;;;;;14.10;96.40;;;;;;5015800;28;20152;-69
2022/03/30 09:38:58;;;;;;;;;;;13.80;96.60;;;;;;5017857;28;19925;-68
2022/03/30 09:41:24;;;;;;;;;;;13.30;96.80;;;;;;5017818;28;19925;-67
2022/03/30 09:44:01;;;;;;;;;;;13.00;97.10;;;;;;5012553;28;19921;-68
2022/03/30 09:46:28;;;;;;;;;;;12.70;97.40;;;;;;5016558;28;20373;-68
2022/03/30 09:48:54;;;;;;;;;;;12.50;98.00;;;;;;5024452;28;19925;-68
2022/03/30 09:51:23;;;;;;;;;;;12.40;97.90;;;;;;5017409;28;19935;-68
2022/03/30 09:53:51;;;;;;;;;;;12.40;98.20;;;;;;5004357;28;20437;-67
2022/03/30 09:56:19;;;;;;;;;;;12.30;98.50;;;;;;5008398;28;19944;-68
2022/03/30 09:58:46;;;;;;;;;;;12.20;98.60;;;;;;4997379;28;19929;-67
2022/03/30 10:01:15;;;;;;;;;;;12.20;98.80;;;;;;5012866;28;20382;-70
2022/03/30 10:03:46;;;;;;;;;;;12.20;99.10;;;;;;5016386;28;20016;-69
2022/03/30 10:06:14;;;;;;;;;;;12.10;98.90;;;;;;5009774;28;20008;-69
2022/03/30 10:08:42;;;;;;;;;;;12.20;99.30;;;;;;5005672;28;19933;-68
2022/03/30 10:11:12;;;;;;;;;;;12.40;99.40;;;;;;5014964;28;20244;-69
2022/03/30 10:13:40;;;;;;;;;;;12.60;99.40;;;;;;5018364;28;19925;-69
2022/03/30 10:16:08;;;;;;;;;;;12.70;99.30;;;;;;5020367;28;20401;-69
2022/03/30 10:18:34;;;;;;;;;;;13.00;99.20;;;;;;5018085;28;20279;-70
2022/03/30 10:21:04;;;;;;;;;;;12.90;98.90;;;;;;5009056;28;19929;-69
2022/03/30 10:23:38;;;;;;;;;;;12.90;98.90;;;;;;5022248;28;19921;-69
2022/03/30 10:26:15;;;;;;;;;;;13.00;99.00;;;;;;5013720;28;19924;-69
2022/03/30 10:28:48;;;;;;;;;;;12.90;98.90;;;;;;5009441;28;19929;-68
2022/03/30 10:31:20;;;;;;;;;;;12.90;99.10;;;;;;5009563;28;20253;-68
2022/03/30 10:33:47;;;;;;;;;;;13.00;98.80;;;;;;5015697;28;19924;-68
2022/03/30 10:36:21;;;;;;;;;;;13.00;99.00;;;;;;5006247;28;19925;-70
2022/03/30 10:39:07;;;;;;;;;;;13.20;99.10;;;;;;5015026;28;19964;-71
2022/03/30 10:41:49;;;;;;;;;;;13.30;99.20;;;;;;5015156;28;19960;-70
2022/03/30 10:44:36;;;;;;;;;;;13.50;99.20;;;;;;5013822;28;20008;-68
2022/03/30 10:47:07;;;;;;;;;;;13.70;99.40;;;;;;5002660;28;19929;-69
2022/03/30 10:49:41;;;;;;;;;;;14.00;99.40;;;;;;5017392;28;19925;-69
2022/03/30 10:52:41;;;;;;;;;;;14.30;99.30;;;;;;5010536;28;20276;-69
2022/03/30 10:55:26;;;;;;;;;;;14.40;97.80;;;;;;5011849;28;19924;-69
2022/03/30 10:57:57;;;;;;;;;;;14.20;97.70;;;;;;5012247;28;19921;-68
2022/03/30 11:00:26;;;;;;;;;;;14.10;97.90;;;;;;5004147;28;19925;-69
2022/03/30 11:03:05;;;;;;;;;;;14.20;98.50;;;;;;5004889;28;19966;-70
2022/03/30 11:05:32;;;;;;;;;;;14.50;98.20;;;;;;5015008;28;19925;-70
2022/03/30 11:07:59;;;;;;;;;;;14.60;98.30;;;;;;5004986;28;19929;-69
2022/03/30 11:10:29;;;;;;;;;;;14.70;98.10;;;;;;5004382;28;20418;-69
2022/03/30 11:12:59;;;;;;;;;;;15.00;98.40;;;;;;5019038;28;19947;-69
2022/03/30 11:15:28;;;;;;;;;;;15.30;98.30;;;;;;5006580;28;19936;-70
2022/03/30 11:17:56;;;;;;;;;;;15.80;98.50;;;;;;5016758;28;19975;-70
2022/03/30 11:20:24;;;;;;;;;;;15.90;98.30;;;;;;5010786;28;19925;-70
2022/03/30 11:22:50;;;;;;;;;;;16.10;97.40;;;;;;5013957;28;20012;-69
2022/03/30 11:25:19;;;;;;;;;;;16.00;96.40;;;;;;5016603;28;20337;-70
2022/03/30 11:28:02;;;;;;;;;;;15.90;96.70;;;;;;5020123;28;21270;-71
2022/03/30 11:30:31;;;;;;;;;;;15.90;96.80;;;;;;5010786;28;20254;-70
2022/03/30 11:33:00;;;;;;;;;;;16.10;96.80;;;;;;5012026;28;19933;-69
2022/03/30 11:35:29;;;;;;;;;;;16.30;96.90;;;;;;5017380;28;19933;-70
2022/03/30 11:38:06;;;;;;;;;;;16.40;96.20;;;;;;5015201;28;19993;-70
2022/03/30 11:40:35;;;;;;;;;;;16.10;96.00;;;;;;5017185;28;19929;-70
2022/03/30 11:43:02;;;;;;;;;;;15.80;95.90;;;;;;5018996;28;20040;-70
2022/03/30 11:45:31;;;;;;;;;;;15.80;96.50;;;;;;5016797;28;19933;-69
2022/03/30 11:47:59;;;;;;;;;;;16.10;96.80;;;;;;5021870;28;19932;-69
2022/03/30 11:50:26;;;;;;;;;;;16.20;96.30;;;;;;5013472;28;19925;-70
2022/03/30 11:52:54;;;;;;;;;;;16.10;95.40;;;;;;5005862;28;20298;-70
2022/03/30 11:55:20;;;;;;;;;;;16.00;95.90;;;;;;4999931;28;19975;-70
2022/03/30 11:57:47;;;;;;;;;;;16.00;95.60;;;;;;5007056;28;19930;-71
2022/03/30 12:00:14;;;;;;;;;;;16.40;96.20;;;;;;5008940;28;20347;-71
2022/03/30 12:02:44;;;;;;;;;;;16.80;96.30;;;;;;5010682;28;19936;-70
2022/03/30 12:05:11;;;;;;;;;;;17.20;96.20;;;;;;5015533;28;20007;-70
2022/03/30 12:07:38;;;;;;;;;;;17.40;95.50;;;;;;5013973;28;19933;-70
2022/03/30 12:10:08;;;;;;;;;;;18.20;95.70;;;;;;5009376;28;19930;-70
2022/03/30 12:12:36;;;;;;;;;;;17.40;95.40;;;;;;5017200;28;19959;-70
2022/03/30 12:15:04;;;;;;;;;;;17.40;94.40;;;;;;5007363;28;20307;-70
2022/03/30 12:17:32;;;;;;;;;;;17.40;93.80;;;;;;5013392;28;19937;-70
2022/03/30 12:20:01;;;;;;;;;;;17.30;94.10;;;;;;5018816;28;19960;-70
2022/03/30 12:22:28;;;;;;;;;;;17.10;93.30;;;;;;5019770;28;19973;-70
2022/03/30 12:24:54;;;;;;;;;;;17.00;94.00;;;;;;5010616;28;19983;-70
2022/03/30 12:27:21;;;;;;;;;;;16.90;94.00;;;;;;5019930;28;19925;-70
2022/03/30 12:29:48;;;;;;;;;;;16.60;93.40;;;;;;5020041;28;19933;-69
2022/03/30 12:32:15;;;;;;;;;;;16.40;93.70;;;;;;5007478;28;19925;-69
2022/03/30 12:34:42;;;;;;;;;;;16.50;94.40;;;;;;4998199;28;19999;-69
2022/03/30 12:37:11;;;;;;;;;;;16.90;94.30;;;;;;5017989;28;20032;-69
2022/03/30 12:39:39;;;;;;;;;;;17.00;93.70;;;;;;5012390;28;20088;-70
2022/03/30 12:42:07;;;;;;;;;;;17.10;93.90;;;;;;5012952;28;20310;-69
2022/03/30 12:44:35;;;;;;;;;;;17.20;93.90;;;;;;5019277;28;19930;-69
2022/03/30 12:47:02;;;;;;;;;;;16.90;93.40;;;;;;5015801;28;20363;-69
2022/03/30 12:49:34;;;;;;;;;;;16.80;93.40;;;;;;5012146;28;19929;-70
2022/03/30 12:52:04;;;;;;;;;;;16.70;93.40;;;;;;5011406;28;19929;-69
2022/03/30 12:54:32;;;;;;;;;;;16.70;93.30;;;;;;5005383;28;20400;-69
2022/03/30 12:56:59;;;;;;;;;;;16.60;92.70;;;;;;5006723;28;19936;-69
2022/03/30 12:59:26;;;;;;;;;;;16.60;92.70;;;;;;5020979;28;20374;-70
2022/03/30 13:01:53;;;;;;;;;;;16.60;92.30;;;;;;5006884;28;19928;-70
2022/03/30 13:04:20;;;;;;;;;;;16.80;92.90;;;;;;5007405;28;19929;-69
2022/03/30 13:07:07;;;;;;;;;;;17.00;92.80;;;;;;5019366;28;19925;-69
2022/03/30 13:09:35;;;;;;;;;;;17.00;93.00;;;;;;5019902;28;20351;-69
2022/03/30 13:12:02;;;;;;;;;;;17.00;92.90;;;;;;5013445;28;20390;-68
2022/03/30 13:14:29;;;;;;;;;;;16.90;92.50;;;;;;5019969;28;19926;-69
2022/03/30 13:16:56;;;;;;;;;;;16.00;91.70;;;;;;5004808;28;19991;-69
2022/03/30 13:19:24;;;;;;;;;;;16.00;92.00;;;;;;5004257;28;19983;-69
2022/03/30 13:21:51;;;;;;;;;;;15.90;92.30;;;;;;5003461;28;19933;-69
2022/03/30 13:24:20;;;;;;;;;;;15.90;92.70;;;;;;4995904;28;19929;-69
2022/03/30 13:26:52;;;;;;;;;;;15.80;91.60;;;;;;5000379;28;19929;-69
2022/03/30 13:29:19;;;;;;;;;;;16.30;92.00;;;;;;5005904;28;19930;-68
2022/03/30 13:31:46;;;;;;;;;;;16.40;90.90;;;;;;5006675;28;20342;-69
2022/03/30 13:34:14;;;;;;;;;;;16.50;91.40;;;;;;5006044;28;20445;-69
2022/03/30 13:36:47;;;;;;;;;;;16.80;91.50;;;;;;5001401;28;19996;-71
2022/03/30 13:39:16;;;;;;;;;;;16.80;91.80;;;;;;5007733;28;20399;-71
2022/03/30 13:41:44;;;;;;;;;;;17.00;91.90;;;;;;5004447;28;20358;-69
2022/03/30 13:44:12;;;;;;;;;;;17.20;92.20;;;;;;5005843;28;19937;-70
2022/03/30 13:46:39;;;;;;;;;;;17.40;92.10;;;;;;5006344;28;19929;-70
2022/03/30 13:49:06;;;;;;;;;;;17.70;92.20;;;;;;5005377;28;20283;-70
2022/03/30 13:51:33;;;;;;;;;;;17.90;91.80;;;;;;5005000;28;19930;-70
2022/03/30 13:54:00;;;;;;;;;;;17.70;90.90;;;;;;4999828;28;19937;-70
2022/03/30 13:56:27;;;;;;;;;;;17.30;90.70;;;;;;5006665;28;19947;-69
2022/03/30 13:58:55;;;;;;;;;;;16.90;90.70;;;;;;4999809;28;20418;-69
2022/03/30 14:01:24;;;;;;;;;;;16.50;90.80;;;;;;5005475;28;19933;-69
2022/03/30 14:03:51;;;;;;;;;;;16.20;90.90;;;;;;5006460;28;19934;-69
2022/03/30 14:06:18;;;;;;;;;;;16.10;91.30;;;;;;5005684;28;20036;-70
2022/03/30 14:08:44;;;;;;;;;;;16.00;91.10;;;;;;5000366;28;19929;-70
2022/03/30 14:11:11;;;;;;;;;;;16.10;91.20;;;;;;5008164;28;19933;-70
2022/03/30 14:13:39;;;;;;;;;;;15.90;91.80;;;;;;5011225;28;19987;-70
2022/03/30 14:16:06;;;;;;;;;;;16.00;91.50;;;;;;5011400;28;19929;-69
2022/03/30 14:18:34;;;;;;;;;;;17.90;92.10;;;;;;5001084;28;19937;-70
2022/03/30 14:21:01;;;;;;;;;;;16.20;90.90;;;;;;5001803;28;19936;-69
2022/03/30 14:23:28;;;;;;;;;;;16.10;90.70;;;;;;5011447;28;20443;-69
2022/03/30 14:25:55;;;;;;;;;;;16.00;90.80;;;;;;5005004;28;20016;-69
2022/03/30 14:28:24;;;;;;;;;;;15.90;90.50;;;;;;4994971;28;20414;-72
2022/03/30 14:30:51;;;;;;;;;;;15.80;90.60;;;;;;5007992;28;19968;-71
2022/03/30 14:33:18;;;;;;;;;;;15.80;90.90;;;;;;5010660;28;20486;-72
2022/03/30 14:35:46;;;;;;;;;;;15.80;90.90;;;;;;5015806;28;20337;-71
2022/03/30 14:38:12;;;;;;;;;;;15.80;91.40;;;;;;5007490;28;20383;-71